createdAt,value
2023-11-24T00:01:56.566Z,4.3
2023-11-24T00:09:29.085Z,4.7
2023-11-24T00:17:01.644Z,4.4
2023-11-24T00:24:34.108Z,3.9
2023-11-24T00:32:06.571Z,4.3
2023-11-24T00:39:39.042Z,3.8
2023-11-24T00:47:11.546Z,3.2
2023-11-24T00:54:44.087Z,4.0
2023-11-24T01:02:16.539Z,3.0
2023-11-24T01:09:49.031Z,4.6
2023-11-24T01:17:21.644Z,3.9
2023-11-24T01:24:54.141Z,3.1
2023-11-24T01:32:26.657Z,3.4
2023-11-24T01:39:59.220Z,3.3
2023-11-24T01:47:31.806Z,2.8
2023-11-24T01:55:04.336Z,3.0
2023-11-24T02:02:36.920Z,3.7
2023-11-24T02:10:09.400Z,3.3
2023-11-24T02:17:41.857Z,2.0
2023-11-24T02:25:14.383Z,3.5
2023-11-24T02:32:46.861Z,2.3
2023-11-24T02:40:19.315Z,2.3
2023-11-24T02:47:51.904Z,2.3
2023-11-24T02:55:24.406Z,2.6
2023-11-24T03:02:56.865Z,3.1
2023-11-24T03:10:29.273Z,2.9
2023-11-24T03:18:01.846Z,3.7
2023-11-24T03:25:34.325Z,2.6
2023-11-24T03:33:06.820Z,2.3
2023-11-24T03:40:39.359Z,2.3
2023-11-24T03:48:11.779Z,2.0
2023-11-24T03:55:44.220Z,1.9
2023-11-24T04:03:16.667Z,2.1
2023-11-24T04:10:49.118Z,3.4
2023-11-24T04:18:21.585Z,2.7
2023-11-24T04:25:54.060Z,2.3
2023-11-24T04:33:26.531Z,2.0
2023-11-24T04:40:58.970Z,2.1
2023-11-24T04:48:31.450Z,2.8
2023-11-24T04:56:03.906Z,2.7
2023-11-24T05:03:36.451Z,2.2
2023-11-24T05:11:08.958Z,2.3
2023-11-24T05:18:41.394Z,3.2
2023-11-24T05:26:13.862Z,2.3
2023-11-24T05:29:33.734Z,2.6
2023-11-24T05:30:21.170Z,2.5
2023-11-24T05:31:08.705Z,2.1
2023-11-24T05:31:56.214Z,4.4
2023-11-24T05:32:43.722Z,5.4
2023-11-24T05:33:31.237Z,2.9
2023-11-24T05:34:18.883Z,3.2
2023-11-24T05:35:06.305Z,7.8
2023-11-24T05:35:53.992Z,3.4
2023-11-24T05:36:41.432Z,5.8
2023-11-24T05:37:28.856Z,6.4
2023-11-24T05:38:16.300Z,3.0
2023-11-24T05:39:03.753Z,13.3
2023-11-24T05:39:51.276Z,3.7
2023-11-24T05:40:38.752Z,12.5
2023-11-24T05:41:26.205Z,10.0
2023-11-24T05:42:13.628Z,3.7
2023-11-24T05:43:01.072Z,3.5
2023-11-24T05:43:48.511Z,4.8
2023-11-24T05:44:35.968Z,3.5
2023-11-24T05:45:23.399Z,6.2
2023-11-24T05:46:10.874Z,15.1
2023-11-24T05:46:58.376Z,3.2
2023-11-24T05:47:45.907Z,3.1
2023-11-24T05:48:33.358Z,3.8
2023-11-24T05:49:20.795Z,12.9
2023-11-24T05:50:08.219Z,3.6
2023-11-24T05:50:55.656Z,14.2
2023-11-24T05:51:45.156Z,6.3
2023-11-24T05:52:32.847Z,3.6
2023-11-24T05:53:20.292Z,4.3
2023-11-24T05:54:07.754Z,3.1
2023-11-24T05:54:55.244Z,2.8
2023-11-24T05:55:42.691Z,3.3
2023-11-24T05:56:30.131Z,3.3
2023-11-24T05:57:17.552Z,5.8
2023-11-24T05:58:05.033Z,2.8
2023-11-24T05:58:52.574Z,4.8
2023-11-24T05:59:40.012Z,7.7
2023-11-24T06:00:27.462Z,8.8
2023-11-24T06:01:14.923Z,7.3
2023-11-24T06:02:02.421Z,8.8
2023-11-24T06:02:49.888Z,7.2
2023-11-24T06:03:37.425Z,14.6
2023-11-24T06:04:25.004Z,7.8
2023-11-24T06:05:12.698Z,7.1
2023-11-24T06:06:00.218Z,15.3
2023-11-24T06:06:47.652Z,12.1
2023-11-24T06:07:35.104Z,6.8
2023-11-24T06:08:22.531Z,8.8
2023-11-24T06:09:09.958Z,6.2
2023-11-24T06:09:57.412Z,16.4
2023-11-24T06:10:44.855Z,14.9
2023-11-24T06:11:32.300Z,32.1
2023-11-24T06:12:19.745Z,23.0
2023-11-24T06:13:07.496Z,16.3
2023-11-24T06:13:55.168Z,21.0
2023-11-24T06:14:42.582Z,17.4
2023-11-24T06:15:30.365Z,10.7
2023-11-24T06:16:17.887Z,16.1
2023-11-24T06:17:05.388Z,9.9
2023-11-24T06:17:53.059Z,11.6
2023-11-24T06:18:40.519Z,5.9
2023-11-24T06:19:27.999Z,11.0
2023-11-24T06:20:15.423Z,18.8
2023-11-24T06:21:02.878Z,16.7
2023-11-24T06:21:50.355Z,15.0
2023-11-24T06:22:37.799Z,11.4
2023-11-24T06:23:25.243Z,7.8
2023-11-24T06:24:12.831Z,11.3
2023-11-24T06:25:00.332Z,7.0
2023-11-24T06:25:47.972Z,9.5
2023-11-24T06:26:35.404Z,13.8
2023-11-24T06:27:23.096Z,7.8
2023-11-24T06:28:10.529Z,5.8
2023-11-24T06:28:58.051Z,8.3
2023-11-24T06:29:45.457Z,7.5
2023-11-24T06:30:32.910Z,7.2
2023-11-24T06:31:20.425Z,15.8
2023-11-24T06:32:07.915Z,19.5
2023-11-24T06:32:55.475Z,16.4
2023-11-24T06:33:42.962Z,16.6
2023-11-24T06:34:30.630Z,9.2
2023-11-24T06:35:18.288Z,16.4
2023-11-24T06:36:06.191Z,9.9
2023-11-24T06:36:53.670Z,12.3
2023-11-24T06:37:41.118Z,9.2
2023-11-24T06:38:28.579Z,11.7
2023-11-24T06:39:16.014Z,23.5
2023-11-24T06:40:03.529Z,11.6
2023-11-24T06:40:51.006Z,7.5
2023-11-24T06:41:38.451Z,8.6
2023-11-24T06:42:25.892Z,9.7
2023-11-24T06:43:13.420Z,5.8
2023-11-24T06:44:00.852Z,4.8
2023-11-24T06:44:48.339Z,9.0
2023-11-24T06:45:35.844Z,5.7
2023-11-24T06:46:23.352Z,31.4
2023-11-24T06:47:10.927Z,29.6
2023-11-24T06:47:58.498Z,13.7
2023-11-24T06:48:46.048Z,15.1
2023-11-24T06:49:33.534Z,17.5
2023-11-24T06:50:20.972Z,23.9
2023-11-24T06:51:08.543Z,26.5
2023-11-24T06:51:56.060Z,39.4
2023-11-24T06:52:43.740Z,15.1
2023-11-24T06:53:31.178Z,19.1
2023-11-24T06:54:18.631Z,25.1
2023-11-24T06:55:06.125Z,27.4
2023-11-24T06:55:53.636Z,20.9
2023-11-24T06:56:41.066Z,19.2
2023-11-24T06:57:28.513Z,20.0
2023-11-24T06:58:16.002Z,16.5
2023-11-24T06:59:03.483Z,11.2
2023-11-24T06:59:50.931Z,12.5
2023-11-24T07:00:38.365Z,19.4
2023-11-24T07:01:25.916Z,13.2
2023-11-24T07:02:13.559Z,10.3
2023-11-24T07:03:01.125Z,15.0
2023-11-24T07:03:48.637Z,13.2
2023-11-24T07:04:36.177Z,11.0
2023-11-24T07:05:23.652Z,6.7
2023-11-24T07:06:11.097Z,10.6
2023-11-24T07:06:58.564Z,14.4
2023-11-24T07:07:46.020Z,6.5
2023-11-24T07:08:33.465Z,11.8
2023-11-24T07:09:20.970Z,7.7
2023-11-24T07:10:08.646Z,9.3
2023-11-24T07:10:56.242Z,6.2
2023-11-24T07:11:43.731Z,5.1
2023-11-24T07:12:31.268Z,6.6
2023-11-24T07:13:18.767Z,5.6
2023-11-24T07:14:06.487Z,10.1
2023-11-24T07:14:53.970Z,21.1
2023-11-24T07:15:41.467Z,8.0
2023-11-24T07:16:29.029Z,7.3
2023-11-24T07:17:16.783Z,13.6
2023-11-24T07:18:04.256Z,15.2
2023-11-24T07:18:51.786Z,7.2
2023-11-24T07:19:39.310Z,5.8
2023-11-24T07:20:27.051Z,6.5
2023-11-24T07:21:14.506Z,9.4
2023-11-24T07:22:02.019Z,16.8
2023-11-24T07:22:49.499Z,12.2
2023-11-24T07:23:37.226Z,9.1
2023-11-24T07:24:24.664Z,14.5
2023-11-24T07:25:12.147Z,18.8
2023-11-24T07:25:59.614Z,43.5
2023-11-24T07:26:47.059Z,15.1
2023-11-24T07:27:34.538Z,9.5
2023-11-24T07:28:22.025Z,14.3
2023-11-24T07:29:09.513Z,23.4
2023-11-24T07:29:56.936Z,20.0
2023-11-24T07:30:44.403Z,19.7
2023-11-24T07:31:31.843Z,14.4
2023-11-24T07:32:19.272Z,13.8
2023-11-24T07:33:08.082Z,20.7
2023-11-24T07:33:57.485Z,16.0
2023-11-24T07:34:44.966Z,10.3
2023-11-24T07:35:32.450Z,13.4
2023-11-24T07:36:19.913Z,21.8
2023-11-24T07:37:07.376Z,18.3
2023-11-24T07:37:54.834Z,20.6
2023-11-24T07:38:42.398Z,18.2
2023-11-24T07:39:29.832Z,17.4
2023-11-24T07:40:17.286Z,12.9
2023-11-24T07:41:04.732Z,15.4
2023-11-24T07:41:52.174Z,10.4
2023-11-24T07:42:39.653Z,8.8
2023-11-24T07:43:27.100Z,17.3
2023-11-24T07:44:14.549Z,10.0
2023-11-24T07:45:02.008Z,9.5
2023-11-24T07:45:49.558Z,11.9
2023-11-24T07:46:37.106Z,11.9
2023-11-24T07:47:26.926Z,15.3
2023-11-24T07:48:15.724Z,9.8
2023-11-24T07:49:03.279Z,10.1
2023-11-24T07:49:50.717Z,20.4
2023-11-24T07:50:38.171Z,11.3
2023-11-24T07:51:25.621Z,15.0
2023-11-24T07:52:13.143Z,12.2
2023-11-24T07:53:00.604Z,13.1
2023-11-24T07:53:48.060Z,8.6
2023-11-24T07:54:35.518Z,21.0
2023-11-24T07:55:22.938Z,8.3
2023-11-24T07:56:10.395Z,10.2
2023-11-24T07:56:57.829Z,7.6
2023-11-24T07:57:45.326Z,7.3
2023-11-24T07:58:32.774Z,9.2
2023-11-24T07:59:20.241Z,5.8
2023-11-24T08:00:07.749Z,9.5
2023-11-24T08:00:55.193Z,8.3
2023-11-24T08:01:42.732Z,5.1
2023-11-24T08:02:30.284Z,8.0
2023-11-24T08:03:17.798Z,10.7
2023-11-24T08:04:05.371Z,13.8
2023-11-24T08:04:52.885Z,6.0
2023-11-24T08:05:40.336Z,6.0
2023-11-24T08:06:27.796Z,7.4
2023-11-24T08:07:15.288Z,13.2
2023-11-24T08:08:02.763Z,7.0
2023-11-24T08:08:50.209Z,7.0
2023-11-24T08:09:37.667Z,42.7
2023-11-24T08:10:25.132Z,33.8
2023-11-24T08:11:12.591Z,26.5
2023-11-24T08:12:00.047Z,23.6
2023-11-24T08:12:47.603Z,34.0
2023-11-24T08:13:35.146Z,14.9
2023-11-24T08:14:22.582Z,12.0
2023-11-24T08:15:10.030Z,32.6
2023-11-24T08:15:57.591Z,12.7
2023-11-24T08:16:45.184Z,25.2
2023-11-24T08:17:33.251Z,14.9
2023-11-24T08:18:20.865Z,11.5
2023-11-24T08:19:08.685Z,32.7
2023-11-24T08:19:56.116Z,24.3
2023-11-24T08:20:43.679Z,16.8
2023-11-24T08:21:31.122Z,17.2
2023-11-24T08:22:18.698Z,17.2
2023-11-24T08:23:06.322Z,14.5
2023-11-24T08:23:53.799Z,12.7
2023-11-24T08:24:41.505Z,18.0
2023-11-24T08:25:28.957Z,13.7
2023-11-24T08:26:16.393Z,18.4
2023-11-24T08:27:03.884Z,8.6
2023-11-24T08:27:51.372Z,9.4
2023-11-24T08:28:38.845Z,18.2
2023-11-24T08:29:26.291Z,14.0
2023-11-24T08:30:13.965Z,5.9
2023-11-24T08:31:01.635Z,9.1
2023-11-24T08:31:49.360Z,7.9
2023-11-24T08:32:36.900Z,4.9
2023-11-24T08:33:24.359Z,12.6
2023-11-24T08:34:11.897Z,7.1
2023-11-24T08:34:59.541Z,10.7
2023-11-24T08:35:47.108Z,9.7
2023-11-24T08:36:34.582Z,9.9
2023-11-24T08:37:22.176Z,8.2
2023-11-24T08:38:09.753Z,9.9
2023-11-24T08:38:57.361Z,8.7
2023-11-24T08:39:44.841Z,6.3
2023-11-24T08:40:32.296Z,12.4
2023-11-24T08:41:30.475Z,6.7
2023-11-24T08:42:17.199Z,6.2
2023-11-24T08:43:04.705Z,12.4
2023-11-24T08:43:52.281Z,14.4
2023-11-24T08:44:40.443Z,13.8
2023-11-24T08:45:28.123Z,9.1
2023-11-24T08:46:15.618Z,21.9
2023-11-24T08:47:03.241Z,11.0
2023-11-24T08:47:50.796Z,9.1
2023-11-24T08:48:38.290Z,10.1
2023-11-24T08:49:26.013Z,15.1
2023-11-24T08:50:13.473Z,14.4
2023-11-24T08:51:01.088Z,15.3
2023-11-24T08:51:48.593Z,15.2
2023-11-24T08:52:36.232Z,7.6
2023-11-24T08:53:23.719Z,7.2
2023-11-24T08:54:11.349Z,7.6
2023-11-24T08:54:58.995Z,8.2
2023-11-24T08:55:46.459Z,9.4
2023-11-24T08:56:33.953Z,9.3
2023-11-24T08:57:21.397Z,8.2
2023-11-24T08:58:08.926Z,13.6
2023-11-24T08:58:56.395Z,6.7
2023-11-24T08:59:43.861Z,12.5
2023-11-24T09:00:31.369Z,17.1
2023-11-24T09:01:18.904Z,14.7
2023-11-24T09:02:06.438Z,9.4
2023-11-24T09:02:53.988Z,11.2
2023-11-24T09:03:41.586Z,13.7
2023-11-24T09:04:29.236Z,15.5
2023-11-24T09:05:16.830Z,10.8
2023-11-24T09:06:04.384Z,7.7
2023-11-24T09:06:51.906Z,10.6
2023-11-24T09:07:39.385Z,14.8
2023-11-24T09:08:26.818Z,8.5
2023-11-24T09:09:14.260Z,12.7
2023-11-24T09:10:01.737Z,8.8
2023-11-24T09:10:49.217Z,13.5
2023-11-24T09:11:36.673Z,8.6
2023-11-24T09:12:24.128Z,16.4
2023-11-24T09:13:11.661Z,9.9
2023-11-24T09:13:59.140Z,6.1
2023-11-24T09:14:46.589Z,8.2
2023-11-24T09:15:34.130Z,13.9
2023-11-24T09:16:21.878Z,8.7
2023-11-24T09:17:09.623Z,9.0
2023-11-24T09:17:57.140Z,17.0
2023-11-24T09:18:44.840Z,10.2
2023-11-24T09:19:32.306Z,16.9
2023-11-24T09:20:19.751Z,16.0
2023-11-24T09:21:07.240Z,13.9
2023-11-24T09:21:55.053Z,11.4
2023-11-24T09:22:42.836Z,16.9
2023-11-24T09:23:30.470Z,6.4
2023-11-24T09:24:17.890Z,15.6
2023-11-24T09:25:05.692Z,9.6
2023-11-24T09:25:53.172Z,9.4
2023-11-24T09:26:40.620Z,9.2
2023-11-24T09:27:28.042Z,7.9
2023-11-24T09:28:15.757Z,10.7
2023-11-24T09:29:03.228Z,23.6
2023-11-24T09:29:50.713Z,23.6
2023-11-24T09:30:38.219Z,14.6
2023-11-24T09:31:25.833Z,11.5
2023-11-24T09:32:13.278Z,19.0
2023-11-24T09:33:00.863Z,28.8
2023-11-24T09:33:48.334Z,18.3
2023-11-24T09:34:35.833Z,16.6
2023-11-24T09:35:23.362Z,16.4
2023-11-24T09:36:10.906Z,13.5
2023-11-24T09:36:58.379Z,16.4
2023-11-24T09:37:45.856Z,8.9
2023-11-24T09:38:33.267Z,18.0
2023-11-24T09:39:20.716Z,15.5
2023-11-24T09:40:08.319Z,11.3
2023-11-24T09:40:55.775Z,9.1
2023-11-24T09:41:43.261Z,16.1
2023-11-24T09:42:30.715Z,10.2
2023-11-24T09:43:18.202Z,12.3
2023-11-24T09:44:05.665Z,27.4
2023-11-24T09:44:53.121Z,13.2
2023-11-24T09:45:40.620Z,15.3
2023-11-24T09:46:36.487Z,18.8
2023-11-24T09:47:25.729Z,17.0
2023-11-24T09:48:13.201Z,17.3
2023-11-24T09:49:00.653Z,19.9
2023-11-24T09:49:48.104Z,22.2
2023-11-24T09:50:35.542Z,26.6
2023-11-24T09:51:23.054Z,18.3
2023-11-24T09:52:10.605Z,42.4
2023-11-24T09:52:58.360Z,38.5
2023-11-24T09:53:45.931Z,44.8
2023-11-24T09:54:33.381Z,47.7
2023-11-24T09:55:20.815Z,33.9
2023-11-24T09:56:08.241Z,42.7
2023-11-24T09:56:55.722Z,86.6
2023-11-24T09:57:43.184Z,180.6
2023-11-24T09:58:30.652Z,155.9
2023-11-24T09:59:18.137Z,185.9
2023-11-24T10:00:05.682Z,187.1
2023-11-24T10:00:53.231Z,223.3
2023-11-24T10:01:41.000Z,212.1
2023-11-24T10:02:28.635Z,130.5
2023-11-24T10:03:16.158Z,86.0
2023-11-24T10:04:03.837Z,74.0
2023-11-24T10:04:51.351Z,75.4
2023-11-24T10:05:38.774Z,62.0
2023-11-24T10:06:26.264Z,64.0
2023-11-24T10:07:13.709Z,46.8
2023-11-24T10:08:01.168Z,32.2
2023-11-24T10:08:48.655Z,43.9
2023-11-24T10:09:36.179Z,32.2
2023-11-24T10:10:23.760Z,32.9
2023-11-24T10:11:11.217Z,27.6
2023-11-24T10:11:58.640Z,35.6
2023-11-24T10:12:46.163Z,25.2
2023-11-24T10:13:33.628Z,39.5
2023-11-24T10:14:21.053Z,31.5
2023-11-24T10:15:08.489Z,32.9
2023-11-24T10:15:55.952Z,44.2
2023-11-24T10:16:43.616Z,20.4
2023-11-24T10:17:31.114Z,23.7
2023-11-24T10:18:18.576Z,18.3
2023-11-24T10:19:06.026Z,22.0
2023-11-24T10:19:53.447Z,13.7
2023-11-24T10:20:40.925Z,14.9
2023-11-24T10:21:32.524Z,28.4
2023-11-24T10:22:20.721Z,25.0
2023-11-24T10:23:08.220Z,16.2
2023-11-24T10:23:55.892Z,15.5
2023-11-24T10:24:43.354Z,22.1
2023-11-24T10:25:31.224Z,17.9
2023-11-24T10:26:18.742Z,24.5
2023-11-24T10:27:06.184Z,15.7
2023-11-24T10:27:53.668Z,16.3
2023-11-24T10:28:41.147Z,49.7
2023-11-24T10:29:28.596Z,36.5
2023-11-24T10:30:16.097Z,17.7
2023-11-24T10:31:03.629Z,14.1
2023-11-24T10:31:51.188Z,18.7
2023-11-24T10:32:38.727Z,19.3
2023-11-24T10:33:35.214Z,14.4
2023-11-24T10:34:23.689Z,19.5
2023-11-24T10:35:11.204Z,18.4
2023-11-24T10:35:58.747Z,17.4
2023-11-24T10:36:46.193Z,20.6
2023-11-24T10:37:33.624Z,8.2
2023-11-24T10:38:21.065Z,12.4
2023-11-24T10:39:08.505Z,15.2
2023-11-24T10:39:55.981Z,14.3
2023-11-24T10:40:43.461Z,18.5
2023-11-24T10:41:30.896Z,14.9
2023-11-24T10:42:18.338Z,19.5
2023-11-24T10:43:05.839Z,14.3
2023-11-24T10:43:53.320Z,11.0
2023-11-24T10:44:40.826Z,14.6
2023-11-24T10:45:28.255Z,20.5
2023-11-24T10:46:16.381Z,20.5
2023-11-24T10:47:03.925Z,9.1
2023-11-24T10:47:51.428Z,15.6
2023-11-24T10:48:39.140Z,24.2
2023-11-24T10:49:26.647Z,131.7
2023-11-24T10:50:14.165Z,49.1
2023-11-24T10:51:01.811Z,33.4
2023-11-24T10:51:49.294Z,34.6
2023-11-24T10:52:36.748Z,56.3
2023-11-24T10:53:24.202Z,39.4
2023-11-24T10:54:11.664Z,48.9
2023-11-24T10:54:59.193Z,37.6
2023-11-24T10:55:46.725Z,143.6
2023-11-24T10:56:34.306Z,44.1
2023-11-24T10:57:21.782Z,47.9
2023-11-24T10:58:09.733Z,48.8
2023-11-24T10:58:57.538Z,36.0
2023-11-24T10:59:44.979Z,27.9
2023-11-24T11:00:32.458Z,27.3
2023-11-24T11:01:20.191Z,17.0
2023-11-24T11:02:07.971Z,19.7
2023-11-24T11:02:55.844Z,18.5
2023-11-24T11:03:43.447Z,18.5
2023-11-24T11:04:30.951Z,23.2
2023-11-24T11:05:18.454Z,15.7
2023-11-24T11:06:05.924Z,18.1
2023-11-24T11:06:53.387Z,17.3
2023-11-24T11:07:40.958Z,17.6
2023-11-24T11:08:28.539Z,28.1
2023-11-24T11:09:16.095Z,14.1
2023-11-24T11:10:03.790Z,15.6
2023-11-24T11:10:51.452Z,18.0
2023-11-24T11:11:38.888Z,13.2
2023-11-24T11:12:26.324Z,10.2
2023-11-24T11:13:13.802Z,13.3
2023-11-24T11:14:01.288Z,12.6
2023-11-24T11:14:48.951Z,11.7
2023-11-24T11:15:36.391Z,9.2
2023-11-24T11:16:24.184Z,15.3
2023-11-24T11:17:11.823Z,16.1
2023-11-24T11:17:59.295Z,9.6
2023-11-24T11:18:46.773Z,10.4
2023-11-24T11:19:35.160Z,9.5
2023-11-24T11:20:22.633Z,7.2
2023-11-24T11:21:10.067Z,12.7
2023-11-24T11:21:57.630Z,17.3
2023-11-24T11:22:45.294Z,9.4
2023-11-24T11:23:32.788Z,8.7
2023-11-24T11:24:20.248Z,9.3
2023-11-24T11:25:07.713Z,9.3
2023-11-24T11:25:55.226Z,7.8
2023-11-24T11:26:42.683Z,10.7
2023-11-24T11:27:30.170Z,10.3
2023-11-24T11:28:17.735Z,6.3
2023-11-24T11:29:05.397Z,8.5
2023-11-24T11:29:52.847Z,6.3
2023-11-24T11:30:40.305Z,7.3
2023-11-24T11:38:12.797Z,5.7
2023-11-24T11:45:45.325Z,10.4
2023-11-24T11:53:17.860Z,8.5
2023-11-24T11:56:37.762Z,7.1
2023-11-24T11:57:25.215Z,4.8
2023-11-24T11:58:12.693Z,6.6
2023-11-24T11:59:00.186Z,8.6
2023-11-24T11:59:47.611Z,10.2
2023-11-24T12:00:35.067Z,10.4
2023-11-24T12:01:22.585Z,8.5
2023-11-24T12:02:10.283Z,13.4
2023-11-24T12:02:58.063Z,9.1
2023-11-24T12:03:45.943Z,8.2
2023-11-24T12:04:33.686Z,9.7
2023-11-24T12:05:21.175Z,11.4
2023-11-24T12:06:08.621Z,10.7
2023-11-24T12:06:56.332Z,9.4
2023-11-24T12:07:43.816Z,8.2
2023-11-24T12:08:31.726Z,7.5
2023-11-24T12:09:19.293Z,12.2
2023-11-24T12:10:06.827Z,20.3
2023-11-24T12:10:54.263Z,21.8
2023-11-24T12:11:42.013Z,16.8
2023-11-24T12:12:29.713Z,13.3
2023-11-24T12:13:17.239Z,17.2
2023-11-24T12:14:04.774Z,9.7
2023-11-24T12:14:52.202Z,18.4
2023-11-24T12:15:39.686Z,55.9
2023-11-24T12:16:27.324Z,15.3
2023-11-24T12:17:14.855Z,16.7
2023-11-24T12:18:02.631Z,21.2
2023-11-24T12:18:50.151Z,12.1
2023-11-24T12:19:40.366Z,12.0
2023-11-24T12:20:28.608Z,9.2
2023-11-24T12:21:16.035Z,13.7
2023-11-24T12:22:03.496Z,11.0
2023-11-24T12:22:50.985Z,8.5
2023-11-24T12:23:38.428Z,8.8
2023-11-24T12:24:25.929Z,7.6
2023-11-24T12:25:13.507Z,9.4
2023-11-24T12:26:00.968Z,12.6
2023-11-24T12:26:48.512Z,10.1
2023-11-24T12:27:36.015Z,10.9
2023-11-24T12:28:23.689Z,30.8
2023-11-24T12:29:11.542Z,34.7
2023-11-24T12:29:58.959Z,20.0
2023-11-24T12:30:46.441Z,52.4
2023-11-24T12:31:34.008Z,31.1
2023-11-24T12:32:21.752Z,21.1
2023-11-24T12:33:09.253Z,58.2
2023-11-24T12:33:56.779Z,37.5
2023-11-24T12:34:44.251Z,37.0
2023-11-24T12:35:31.715Z,34.6
2023-11-24T12:36:19.153Z,25.2
2023-11-24T12:37:06.675Z,21.2
2023-11-24T12:37:54.122Z,16.5
2023-11-24T12:38:41.569Z,13.1
2023-11-24T12:39:29.004Z,14.6
2023-11-24T12:40:16.450Z,12.2
2023-11-24T12:41:03.937Z,9.0
2023-11-24T12:41:51.406Z,9.1
2023-11-24T12:42:38.839Z,6.7
2023-11-24T12:43:26.291Z,13.0
2023-11-24T12:44:14.740Z,8.3
2023-11-24T12:45:02.305Z,9.5
2023-11-24T12:45:50.017Z,21.5
2023-11-24T12:46:37.792Z,23.0
2023-11-24T12:47:39.973Z,16.3
2023-11-24T12:48:22.814Z,14.2
2023-11-24T12:49:10.482Z,17.3
2023-11-24T12:49:58.146Z,18.5
2023-11-24T12:50:45.603Z,21.0
2023-11-24T12:51:33.070Z,42.0
2023-11-24T12:52:20.486Z,43.0
2023-11-24T12:53:07.968Z,28.5
2023-11-24T12:53:55.390Z,28.6
2023-11-24T12:54:42.856Z,30.9
2023-11-24T12:55:30.333Z,29.5
2023-11-24T12:56:17.754Z,30.4
2023-11-24T12:57:05.231Z,27.5
2023-11-24T12:57:52.678Z,22.1
2023-11-24T12:58:40.133Z,21.1
2023-11-24T12:59:27.555Z,21.3
2023-11-24T13:00:15.545Z,22.6
2023-11-24T13:01:03.680Z,15.6
2023-11-24T13:01:51.182Z,17.3
2023-11-24T13:02:38.750Z,17.0
2023-11-24T13:03:26.254Z,19.1
2023-11-24T13:04:15.422Z,21.1
2023-11-24T13:05:03.731Z,23.0
2023-11-24T13:05:51.195Z,15.8
2023-11-24T13:06:39.009Z,18.6
2023-11-24T13:07:26.509Z,19.5
2023-11-24T13:08:13.985Z,15.6
2023-11-24T13:09:01.426Z,25.6
2023-11-24T13:09:48.944Z,47.0
2023-11-24T13:10:36.417Z,55.0
2023-11-24T13:11:23.875Z,32.3
2023-11-24T13:12:18.007Z,23.3
2023-11-24T13:13:06.518Z,19.4
2023-11-24T13:13:54.007Z,27.9
2023-11-24T13:14:41.442Z,16.4
2023-11-24T13:15:28.910Z,18.7
2023-11-24T13:16:16.478Z,18.0
2023-11-24T13:17:04.302Z,14.4
2023-11-24T13:17:51.978Z,8.9
2023-11-24T13:18:39.456Z,14.6
2023-11-24T13:19:27.111Z,7.5
2023-11-24T13:20:14.627Z,7.9
2023-11-24T13:21:02.078Z,10.8
2023-11-24T13:21:49.593Z,12.1
2023-11-24T13:22:37.033Z,8.7
2023-11-24T13:23:24.548Z,7.5
2023-11-24T13:24:12.063Z,8.4
2023-11-24T13:24:59.852Z,6.9
2023-11-24T13:25:47.348Z,8.6
2023-11-24T13:26:34.865Z,7.9
2023-11-24T13:27:22.298Z,9.0
2023-11-24T13:28:09.759Z,14.7
2023-11-24T13:28:57.296Z,6.6
2023-11-24T13:29:44.809Z,6.5
2023-11-24T13:30:32.218Z,6.2
2023-11-24T13:31:19.719Z,12.9
2023-11-24T13:32:07.379Z,6.7
2023-11-24T13:32:55.152Z,13.9
2023-11-24T13:33:42.666Z,9.6
2023-11-24T13:34:30.240Z,5.5
2023-11-24T13:35:18.076Z,7.3
2023-11-24T13:36:05.722Z,6.2
2023-11-24T13:36:53.470Z,7.4
2023-11-24T13:37:40.947Z,7.8
2023-11-24T13:38:28.425Z,3.7
2023-11-24T13:39:15.918Z,4.3
2023-11-24T13:40:03.503Z,5.2
2023-11-24T13:40:50.976Z,4.7
2023-11-24T13:41:38.410Z,5.4
2023-11-24T13:42:25.981Z,5.8
2023-11-24T13:43:13.474Z,3.9
2023-11-24T13:44:00.910Z,4.1
2023-11-24T13:44:48.393Z,4.7
2023-11-24T13:45:37.016Z,7.9
2023-11-24T13:46:24.664Z,81.7
2023-11-24T13:47:12.153Z,29.7
2023-11-24T13:48:00.015Z,175.5
2023-11-24T13:48:48.259Z,46.7
2023-11-24T13:49:35.937Z,35.0
2023-11-24T13:50:23.393Z,45.8
2023-11-24T13:51:10.864Z,51.1
2023-11-24T13:51:58.357Z,63.6
2023-11-24T13:52:46.138Z,63.9
2023-11-24T13:53:33.650Z,50.8
2023-11-24T13:54:21.335Z,39.7
2023-11-24T13:55:08.954Z,38.8
2023-11-24T13:55:56.578Z,28.3
2023-11-24T13:56:44.015Z,29.3
2023-11-24T13:57:31.475Z,24.5
2023-11-24T13:58:18.963Z,18.0
2023-11-24T13:59:06.440Z,17.9
2023-11-24T13:59:53.906Z,17.2
2023-11-24T14:00:41.338Z,18.3
2023-11-24T14:01:28.940Z,14.6
2023-11-24T14:02:16.655Z,12.4
2023-11-24T14:03:04.490Z,13.6
2023-11-24T14:03:52.635Z,14.5
2023-11-24T14:04:40.173Z,14.2
2023-11-24T14:05:27.767Z,14.4
2023-11-24T14:06:15.234Z,9.6
2023-11-24T14:07:02.701Z,13.6
2023-11-24T14:07:50.200Z,7.4
2023-11-24T14:08:37.628Z,12.7
2023-11-24T14:09:25.086Z,9.2
2023-11-24T14:10:12.542Z,8.3
2023-11-24T14:11:00.025Z,9.1
2023-11-24T14:11:47.465Z,6.1
2023-11-24T14:12:34.896Z,8.2
2023-11-24T14:13:22.412Z,7.7
2023-11-24T14:14:09.891Z,11.5
2023-11-24T14:14:57.363Z,7.7
2023-11-24T14:15:45.568Z,6.4
2023-11-24T14:16:33.166Z,4.7
2023-11-24T14:17:20.645Z,5.8
2023-11-24T14:18:08.206Z,4.9
2023-11-24T14:18:55.727Z,8.5
2023-11-24T14:19:43.184Z,15.2
2023-11-24T14:20:30.637Z,18.7
2023-11-24T14:21:18.075Z,20.8
2023-11-24T14:22:05.567Z,74.2
2023-11-24T14:22:53.317Z,63.9
2023-11-24T14:23:40.837Z,44.7
2023-11-24T14:24:28.298Z,77.8
2023-11-24T14:25:15.880Z,55.1
2023-11-24T14:26:03.445Z,48.3
2023-11-24T14:26:51.405Z,41.2
2023-11-24T14:27:39.893Z,44.7
2023-11-24T14:28:28.881Z,40.8
2023-11-24T14:29:17.061Z,33.0
2023-11-24T14:30:06.270Z,29.4
2023-11-24T14:30:56.096Z,38.0
2023-11-24T14:31:45.684Z,25.6
2023-11-24T14:32:33.404Z,47.1
2023-11-24T14:33:20.860Z,63.1
2023-11-24T14:34:08.438Z,68.6
2023-11-24T14:34:56.008Z,52.9
2023-11-24T14:35:43.468Z,28.9
2023-11-24T14:36:30.928Z,20.4
2023-11-24T14:37:18.366Z,180.5
2023-11-24T14:38:05.837Z,96.9
2023-11-24T14:38:53.290Z,45.3
2023-11-24T14:39:40.827Z,23.4
2023-11-24T14:40:28.335Z,21.6
2023-11-24T14:41:15.847Z,19.2
2023-11-24T14:42:03.329Z,23.8
2023-11-24T14:42:51.008Z,16.4
2023-11-24T14:43:38.706Z,15.3
2023-11-24T14:44:26.168Z,17.6
2023-11-24T14:45:13.585Z,9.8
2023-11-24T14:46:01.099Z,25.4
2023-11-24T14:46:48.629Z,50.3
2023-11-24T14:47:36.100Z,39.4
2023-11-24T14:48:23.544Z,51.3
2023-11-24T14:49:11.020Z,32.9
2023-11-24T14:49:58.473Z,31.0
2023-11-24T14:50:45.928Z,27.0
2023-11-24T14:51:33.381Z,19.2
2023-11-24T14:52:22.189Z,30.9
2023-11-24T14:53:09.660Z,28.0
2023-11-24T14:53:57.127Z,23.4
2023-11-24T14:54:44.591Z,20.7
2023-11-24T14:55:32.104Z,16.2
2023-11-24T14:56:19.652Z,21.2
2023-11-24T14:57:07.247Z,11.5
2023-11-24T14:57:54.754Z,11.7
2023-11-24T14:58:42.235Z,12.5
2023-11-24T14:59:29.685Z,20.1
2023-11-24T15:00:17.130Z,11.1
2023-11-24T15:01:04.651Z,12.9
2023-11-24T15:01:52.210Z,11.5
2023-11-24T15:02:39.808Z,20.0
2023-11-24T15:03:27.328Z,44.5
2023-11-24T15:04:18.799Z,23.2
2023-11-24T15:05:09.282Z,373.6
2023-11-24T15:05:56.882Z,162.1
2023-11-24T15:06:44.525Z,53.5
2023-11-24T15:07:32.022Z,170.9
2023-11-24T15:08:19.526Z,161.1
2023-11-24T15:09:07.078Z,246.3
2023-11-24T15:09:55.070Z,54.4
2023-11-24T15:10:42.592Z,27.0
2023-11-24T15:11:30.099Z,20.7
2023-11-24T15:12:17.599Z,22.9
2023-11-24T15:13:05.108Z,17.6
2023-11-24T15:13:52.618Z,19.0
2023-11-24T15:14:40.368Z,11.7
2023-11-24T15:15:27.866Z,13.7
2023-11-24T15:16:17.120Z,8.4
2023-11-24T15:17:06.999Z,24.6
2023-11-24T15:17:54.881Z,31.8
2023-11-24T15:18:42.337Z,109.1
2023-11-24T15:19:29.810Z,54.5
2023-11-24T15:20:26.900Z,131.6
2023-11-24T15:21:15.276Z,144.2
2023-11-24T15:22:02.815Z,102.3
2023-11-24T15:22:50.341Z,45.5
2023-11-24T15:23:38.201Z,36.2
2023-11-24T15:24:25.719Z,38.6
2023-11-24T15:25:13.293Z,22.1
2023-11-24T15:26:00.833Z,16.5
2023-11-24T15:26:48.489Z,18.7
2023-11-24T15:27:35.991Z,14.0
2023-11-24T15:28:23.722Z,11.0
2023-11-24T15:29:11.279Z,11.3
2023-11-24T15:29:58.775Z,8.8
2023-11-24T15:30:46.296Z,13.9
2023-11-24T15:31:34.172Z,8.4
2023-11-24T15:32:21.807Z,7.5
2023-11-24T15:33:09.251Z,10.5
2023-11-24T15:33:56.706Z,7.4
2023-11-24T15:34:44.128Z,10.3
2023-11-24T15:35:31.568Z,7.2
2023-11-24T15:36:19.021Z,8.6
2023-11-24T15:37:06.489Z,6.5
2023-11-24T15:37:53.992Z,7.1
2023-11-24T15:38:41.644Z,9.4
2023-11-24T15:39:29.265Z,8.4
2023-11-24T15:40:16.717Z,11.0
2023-11-24T15:41:06.672Z,12.8
2023-11-24T15:41:54.442Z,7.6
2023-11-24T15:42:41.996Z,4.6
2023-11-24T15:43:29.541Z,5.0
2023-11-24T15:44:17.012Z,6.0
2023-11-24T15:45:04.486Z,7.0
2023-11-24T15:45:52.049Z,4.8
2023-11-24T15:46:39.839Z,4.8
2023-11-24T15:47:30.262Z,9.9
2023-11-24T15:48:17.939Z,5.8
2023-11-24T15:49:05.405Z,4.2
2023-11-24T15:49:52.837Z,5.3
2023-11-24T15:50:40.270Z,6.4
2023-11-24T15:51:27.716Z,6.1
2023-11-24T15:52:15.796Z,4.2
2023-11-24T15:53:03.449Z,3.5
2023-11-24T15:53:50.902Z,3.6
2023-11-24T15:54:38.325Z,6.0
2023-11-24T15:55:25.830Z,4.1
2023-11-24T15:56:13.430Z,4.6
2023-11-24T15:57:00.895Z,6.3
2023-11-24T15:57:48.348Z,4.7
2023-11-24T15:58:35.846Z,3.5